Time;durP1;ratioP1;P1;durP2;ratioP2;P2;SDS_P1;SDS_P2;PMS_P1;PMS_P2;Temp;Humidity;BMP_temperature;BMP_pressure;BME280_temperature;BME280_humidity;BME280_pressure;Samples;Min_cycle;Max_cycle;Signal;HPM_P1;HPM_P2
2022/08/22 00:00:38;;;;;;;;;;;;;;;28.07;41.03;99865.06;5069911;28;964;-44
2022/08/22 00:03:22;;;;;;;;;;;;;;;27.96;41.27;99866.53;5049545;28;1009;-46
2022/08/22 00:05:50;;;;;;;;;;;;;;;28.04;41.16;99865.47;5070983;28;965;-47
2022/08/22 00:08:34;;;;;;;;;;;;;;;28.04;41.04;99860.06;5068474;28;1040;-44
2022/08/22 00:11:06;;;;;;;;;;;;;;;28.08;40.81;99855.88;5062806;28;1219;-45
2022/08/22 00:13:33;;;;;;;;;;;;;;;28.05;41.06;99862.56;5049848;28;1124;-45
2022/08/22 00:16:07;;;;;;;;;;;;;;;28.04;41.20;99852.81;5050333;28;2581;-45
2022/08/22 00:18:42;;;;;;;;;;;;;;;28.05;40.99;99851.75;5071437;28;1171;-43
2022/08/22 00:21:16;;;;;;;;;;;;;;;28.17;41.05;99853.78;5073403;28;1020;-46
2022/08/22 00:23:51;;;;;;;;;;;;;;;28.09;40.78;99844.84;5064549;28;946;-45
2022/08/22 00:26:22;;;;;;;;;;;;;;;28.10;40.69;99851.09;5069030;28;1029;-46
2022/08/22 00:28:51;;;;;;;;;;;;;;;28.04;40.84;99847.41;5066261;28;1231;-44
2022/08/22 00:31:27;;;;;;;;;;;;;;;28.02;40.94;99848.63;5064372;28;958;-42
2022/08/22 00:34:05;;;;;;;;;;;;;;;28.10;40.57;99849.25;5049756;28;1167;-44
2022/08/22 00:36:49;;;;;;;;;;;;;;;28.13;40.49;99845.28;5072574;28;1917;-44
2022/08/22 00:39:16;;;;;;;;;;;;;;;28.09;41.40;99850.25;5070708;28;977;-45
2022/08/22 00:41:44;;;;;;;;;;;;;;;28.04;40.82;99843.84;5074349;28;1071;-45
2022/08/22 00:44:12;;;;;;;;;;;;;;;28.19;40.54;99849.84;5070829;28;1146;-45
2022/08/22 00:46:46;;;;;;;;;;;;;;;28.19;40.41;99855.25;5065169;28;2513;-42
2022/08/22 00:49:29;;;;;;;;;;;;;;;28.12;40.67;99851.72;5055635;28;1008;-44
2022/08/22 00:52:17;;;;;;;;;;;;;;;28.03;40.78;99853.81;5063406;28;1036;-44
2022/08/22 00:54:48;;;;;;;;;;;;;;;28.19;40.72;99851.72;5071112;28;1107;-44
2022/08/22 00:57:26;;;;;;;;;;;;;;;28.09;41.00;99852.16;5066918;28;1083;-46
2022/08/22 00:59:51;;;;;;;;;;;;;;;28.12;40.89;99849.03;5065429;28;1012;-45
2022/08/22 01:02:39;;;;;;;;;;;;;;;28.11;40.83;99848.19;5069205;28;1028;-44
2022/08/22 01:05:18;;;;;;;;;;;;;;;28.02;41.41;99854.03;5049428;28;1210;-44
2022/08/22 01:08:10;;;;;;;;;;;;;;;28.00;41.16;99851.53;5066238;28;1075;-44
2022/08/22 01:10:41;;;;;;;;;;;;;;;28.12;40.93;99846.31;5041791;28;1256;-45
2022/08/22 01:13:22;;;;;;;;;;;;;;;28.10;41.11;99840.28;5072749;28;1429;-43
2022/08/22 01:15:49;;;;;;;;;;;;;;;28.14;41.26;99852.34;5064520;28;2370;-44
2022/08/22 01:18:20;;;;;;;;;;;;;;;28.04;41.94;99850.09;5055463;28;1139;-45
2022/08/22 01:20:52;;;;;;;;;;;;;;;28.04;41.75;99855.50;5064588;28;835;-44
2022/08/22 01:23:26;;;;;;;;;;;;;;;27.98;41.86;99862.56;5068835;28;965;-42
2022/08/22 01:26:01;;;;;;;;;;;;;;;28.12;41.27;99849.03;5067331;28;961;-43
2022/08/22 01:28:29;;;;;;;;;;;;;;;28.14;41.26;99848.81;5069630;28;953;-43
2022/08/22 01:31:05;;;;;;;;;;;;;;;28.05;41.65;99851.75;5070509;28;1161;-42
2022/08/22 01:33:37;;;;;;;;;;;;;;;28.10;41.65;99848.41;5052284;28;1072;-43
2022/08/22 01:36:17;;;;;;;;;;;;;;;28.00;41.99;99851.53;5073172;28;1902;-43
2022/08/22 01:38:48;;;;;;;;;;;;;;;28.11;41.52;99850.09;5073115;28;1244;-45
2022/08/22 01:41:15;;;;;;;;;;;;;;;28.19;41.04;99851.72;5056365;28;981;-43
2022/08/22 01:43:43;;;;;;;;;;;;;;;28.11;41.45;99853.59;5064420;28;1020;-46
2022/08/22 01:46:21;;;;;;;;;;;;;;;28.03;41.65;99851.13;5066971;28;2409;-44
2022/08/22 01:48:54;;;;;;;;;;;;;;;28.07;41.65;99841.56;5073398;28;1048;-43
2022/08/22 01:51:27;;;;;;;;;;;;;;;28.04;41.94;99847.41;5052359;28;1183;-43
2022/08/22 01:53:58;;;;;;;;;;;;;;;28.16;41.49;99844.03;5049018;28;953;-45
2022/08/22 01:56:24;;;;;;;;;;;;;;;28.07;41.18;99846.13;5042654;28;1906;-43
2022/08/22 01:58:53;;;;;;;;;;;;;;;28.03;41.58;99845.72;5068813;28;985;-43
2022/08/22 02:01:37;;;;;;;;;;;;;;;28.03;41.47;99847.59;5068111;28;973;-44
2022/08/22 02:04:03;;;;;;;;;;;;;;;28.02;41.69;99845.94;5060965;28;1028;-44
2022/08/22 02:06:34;;;;;;;;;;;;;;;27.99;41.74;99850.72;5073733;28;1206;-44
2022/08/22 02:09:08;;;;;;;;;;;;;;;28.14;41.38;99846.94;5076419;28;847;-43
2022/08/22 02:11:36;;;;;;;;;;;;;;;28.13;41.37;99847.97;5076658;28;1237;-43
2022/08/22 02:14:05;;;;;;;;;;;;;;;28.10;41.26;99845.69;5060072;28;946;-42
2022/08/22 02:16:30;;;;;;;;;;;;;;;27.98;41.56;99849.06;5069324;28;2645;-42
2022/08/22 02:18:56;;;;;;;;;;;;;;;28.08;41.45;99843.22;5068345;28;961;-42
2022/08/22 02:21:38;;;;;;;;;;;;;;;28.04;41.47;99846.56;5070945;28;890;-43
2022/08/22 02:24:04;;;;;;;;;;;;;;;28.20;40.76;99846.09;5050393;28;1059;-42
2022/08/22 02:26:42;;;;;;;;;;;;;;;28.00;41.34;99854.25;5056896;28;1040;-43
2022/08/22 02:29:19;;;;;;;;;;;;;;;28.05;41.21;99846.34;5072420;28;948;-44
2022/08/22 02:31:47;;;;;;;;;;;;;;;28.06;41.53;99844.47;5071833;28;1047;-43
2022/08/22 02:34:31;;;;;;;;;;;;;;;28.08;41.50;99853.19;5058702;28;1029;-43
2022/08/22 02:37:05;;;;;;;;;;;;;;;28.12;41.69;99849.03;5076200;28;1906;-43
2022/08/22 02:39:37;;;;;;;;;;;;;;;28.14;41.30;99848.81;5067804;28;922;-44
2022/08/22 02:42:11;;;;;;;;;;;;;;;28.08;41.15;99848.63;5070253;28;989;-44
2022/08/22 02:44:55;;;;;;;;;;;;;;;28.05;41.06;99843.63;5068442;28;2280;-44
2022/08/22 02:47:28;;;;;;;;;;;;;;;28.01;41.29;99846.97;5077511;28;1084;-44
2022/08/22 02:50:05;;;;;;;;;;;;;;;28.02;41.47;99845.94;5041280;28;1048;-44
2022/08/22 02:52:40;;;;;;;;;;;;;;;28.04;41.55;99843.84;5062050;28;973;-43
2022/08/22 02:55:08;;;;;;;;;;;;;;;27.95;41.46;99849.47;5047607;28;1968;-44
2022/08/22 02:57:35;;;;;;;;;;;;;;;28.07;41.52;99844.25;5055091;28;886;-43
2022/08/22 03:00:07;;;;;;;;;;;;;;;28.05;40.89;99853.59;5070889;28;1219;-42
2022/08/22 03:02:32;;;;;;;;;;;;;;;28.11;41.01;99852.78;5074629;28;1040;-42
2022/08/22 03:05:16;;;;;;;;;;;;;;;28.13;40.71;99856.09;5073581;28;1128;-43
2022/08/22 03:07:47;;;;;;;;;;;;;;;28.05;41.55;99864.41;5075652;28;1060;-46
2022/08/22 03:10:13;;;;;;;;;;;;;;;28.12;41.00;99862.53;5075771;28;1277;-45
2022/08/22 03:12:51;;;;;;;;;;;;;;;28.15;40.71;99864.81;5070823;28;1028;-46
2022/08/22 03:15:19;;;;;;;;;;;;;;;28.05;40.78;99861.72;5045724;28;1906;-43
2022/08/22 03:17:53;;;;;;;;;;;;;;;28.36;40.60;99868.34;5064394;28;1216;-47
2022/08/22 03:20:21;;;;;;;;;;;;;;;28.46;40.80;99865.19;5040672;28;1013;-45
2022/08/22 03:22:47;;;;;;;;;;;;;;;28.47;40.58;99869.56;5074373;28;1242;-43
2022/08/22 03:25:16;;;;;;;;;;;;;;;28.28;40.56;99863.16;5058537;28;1083;-44
2022/08/22 03:27:43;;;;;;;;;;;;;;;28.41;40.79;99895.56;5057793;28;1188;-42
2022/08/22 03:30:28;;;;;;;;;;;;;;;28.31;41.66;99878.94;5047000;28;1005;-42
2022/08/22 03:32:55;;;;;;;;;;;;;;;28.22;43.04;99891.84;5063202;28;1107;-39
2022/08/22 03:35:29;;;;;;;;;;;;;;;27.79;45.55;99888.59;5069052;28;1893;-38
2022/08/22 03:38:13;;;;;;;;;;;;;;;27.53;46.44;99894.78;5072210;28;1016;-40
2022/08/22 03:40:41;;;;;;;;;;;;;;;27.45;46.28;99898.50;5073350;28;1001;-41
2022/08/22 03:43:42;;;;;;;;;;;;;;;27.24;49.45;99892.25;5068482;28;984;-41
2022/08/22 03:46:13;;;;;;;;;;;;;;;27.15;50.96;99888.91;4993522;28;1829;-40
2022/08/22 03:48:41;;;;;;;;;;;;;;;27.18;51.95;99893.06;5046983;28;1264;-43
2022/08/22 03:51:12;;;;;;;;;;;;;;;27.12;51.89;99894.72;5060555;28;1271;-41
2022/08/22 03:53:47;;;;;;;;;;;;;;;27.29;51.32;99889.78;5062476;28;1240;-46
2022/08/22 03:56:18;;;;;;;;;;;;;;;27.84;46.30;99886.06;5051418;28;1969;-51
2022/08/22 03:59:03;;;;;;;;;;;;;;;27.97;45.91;99887.94;5067030;28;1115;-53
2022/08/22 04:02:07;;;;;;;;;;;;;;;27.87;46.74;99896.50;5069078;28;1008;-46
2022/08/22 04:04:42;;;;;;;;;;;;;;;27.87;47.70;99888.38;4961026;28;1097;-46
2022/08/22 04:07:30;;;;;;;;;;;;;;;28.14;48.19;99889.38;4964980;28;1292;-44
2022/08/22 04:09:58;;;;;;;;;;;;;;;28.18;45.54;99896.84;5030048;28;1421;-42
2022/08/22 04:12:24;;;;;;;;;;;;;;;28.15;47.10;99904.53;5069394;28;933;-42
2022/08/22 04:15:08;;;;;;;;;;;;;;;27.68;50.11;99908.06;5068322;28;2228;-40
2022/08/22 04:18:03;;;;;;;;;;;;;;;26.97;50.10;99911.88;5072639;28;1055;-37
2022/08/22 04:20:37;;;;;;;;;;;;;;;26.70;49.88;99914.47;5043813;28;1201;-38
2022/08/22 04:23:21;;;;;;;;;;;;;;;26.30;50.65;99909.66;5068531;28;997;-38
2022/08/22 04:25:49;;;;;;;;;;;;;;;26.26;49.20;99903.84;5072093;28;1004;-40
2022/08/22 04:28:34;;;;;;;;;;;;;;;26.15;49.59;99913.31;5070497;28;994;-37
2022/08/22 04:31:13;;;;;;;;;;;;;;;26.31;50.43;99908.63;5069782;28;1017;-35
2022/08/22 04:33:51;;;;;;;;;;;;;;;26.18;51.21;99909.38;5072786;28;1035;-38
2022/08/22 04:36:17;;;;;;;;;;;;;;;25.89;50.78;99905.88;5056585;28;1971;-36
2022/08/22 04:38:43;;;;;;;;;;;;;;;25.80;50.67;99911.41;5065316;28;1142;-37
2022/08/22 04:41:35;;;;;;;;;;;;;;;25.70;52.09;99916.28;5050478;28;1067;-35
2022/08/22 04:44:01;;;;;;;;;;;;;;;25.61;51.18;99912.03;5021092;28;1227;-36
2022/08/22 04:46:45;;;;;;;;;;;;;;;25.47;52.60;99917.28;5046719;28;1827;-38
2022/08/22 04:49:31;;;;;;;;;;;;;;;25.43;51.20;99913.28;5070819;28;1100;-36
2022/08/22 04:52:09;;;;;;;;;;;;;;;25.73;50.52;99915.88;5053405;28;965;-36
2022/08/22 04:54:53;;;;;;;;;;;;;;;25.78;52.75;99923.38;5045125;28;1148;-34
2022/08/22 04:57:33;;;;;;;;;;;;;;;24.64;53.24;99927.25;5060848;28;1906;-39
2022/08/22 04:59:59;;;;;;;;;;;;;;;23.65;54.88;99931.72;5071926;28;1191;-44
2022/08/22 05:02:26;;;;;;;;;;;;;;;23.11;55.19;99920.78;5074618;28;1032;-40
2022/08/22 05:04:55;;;;;;;;;;;;;;;22.84;55.22;99925.59;5064707;28;1220;-39
2022/08/22 05:07:24;;;;;;;;;;;;;;;22.51;55.91;99921.19;5067247;28;1012;-38
2022/08/22 05:09:55;;;;;;;;;;;;;;;22.52;55.75;99938.94;5041329;28;1644;-44
2022/08/22 05:12:21;;;;;;;;;;;;;;;24.56;52.41;99941.66;5048526;28;1002;-41
2022/08/22 05:14:51;;;;;;;;;;;;;;;26.08;49.03;99934.00;5054786;28;1091;-43
2022/08/22 05:17:17;;;;;;;;;;;;;;;25.99;46.73;99935.16;5062331;28;1973;-43
2022/08/22 05:19:44;;;;;;;;;;;;;;;23.92;51.38;99940.25;5069383;28;1076;-42
2022/08/22 05:22:12;;;;;;;;;;;;;;;23.15;53.66;99945.44;5056104;28;870;-42
2022/08/22 05:24:38;;;;;;;;;;;;;;;22.67;54.96;99941.75;5074445;28;1128;-41
2022/08/22 05:27:14;;;;;;;;;;;;;;;22.58;55.59;99946.31;5068576;28;1017;-43
2022/08/22 05:29:40;;;;;;;;;;;;;;;22.34;56.13;99947.16;5065260;28;1104;-41
2022/08/22 05:32:06;;;;;;;;;;;;;;;23.03;58.29;99950.34;5054282;28;1021;-38
2022/08/22 05:34:35;;;;;;;;;;;;;;;25.15;51.64;99947.19;5063148;28;993;-44
2022/08/22 05:37:14;;;;;;;;;;;;;;;26.39;48.88;99946.25;5069374;28;1953;-44
2022/08/22 05:39:40;;;;;;;;;;;;;;;24.52;50.82;99956.50;5055313;28;1064;-45
2022/08/22 05:42:05;;;;;;;;;;;;;;;23.16;54.30;99953.28;5058891;28;1068;-38
2022/08/22 05:44:31;;;;;;;;;;;;;;;22.79;55.28;99960.19;5057979;28;1200;-41
2022/08/22 05:47:01;;;;;;;;;;;;;;;22.37;56.18;99957.56;5066975;28;1619;-42
2022/08/22 05:49:37;;;;;;;;;;;;;;;22.25;57.01;99965.94;5055013;28;958;-47
2022/08/22 05:52:21;;;;;;;;;;;;;;;22.29;57.26;99970.97;5070099;28;992;-40
2022/08/22 05:54:49;;;;;;;;;;;;;;;24.11;55.00;99970.31;5074961;28;1170;-41
2022/08/22 05:57:44;;;;;;;;;;;;;;;25.80;50.22;99970.66;5058736;28;1902;-41
2022/08/22 06:00:15;;;;;;;;;;;;;;;24.64;49.81;99966.78;5060148;28;1270;-40
2022/08/22 06:02:44;;;;;;;;;;;;;;;23.16;53.10;99969.41;5060079;28;1045;-44
2022/08/22 06:05:09;;;;;;;;;;;;;;;22.66;54.07;99974.09;5066378;28;934;-41
2022/08/22 06:07:42;;;;;;;;;;;;;;;22.54;54.43;99971.75;5057328;28;1033;-43
2022/08/22 06:10:17;;;;;;;;;;;;;;;22.20;55.31;99967.47;5057435;28;1156;-43
2022/08/22 06:13:01;;;;;;;;;;;;;;;22.30;56.77;99967.28;5063557;28;1020;-40
2022/08/22 06:15:26;;;;;;;;;;;;;;;24.80;50.00;99973.81;5069184;28;1964;-40
2022/08/22 06:18:04;;;;;;;;;;;;;;;26.16;47.02;99978.81;5071417;28;1041;-40
2022/08/22 06:20:40;;;;;;;;;;;;;;;24.51;48.13;99978.16;5057935;28;1080;-44
2022/08/22 06:23:06;;;;;;;;;;;;;;;22.94;51.99;99979.06;5052137;28;914;-42
2022/08/22 06:25:31;;;;;;;;;;;;;;;22.23;53.56;99978.69;5076870;28;1103;-42
2022/08/22 06:27:57;;;;;;;;;;;;;;;21.98;53.65;99970.66;5057743;28;1156;-43
2022/08/22 06:30:23;;;;;;;;;;;;;;;;;;5059448;28;1049;-42
2022/08/22 06:32:50;;;;;;;;;;;;;;;21.72;54.37;99982.31;5068241;28;945;-41
2022/08/22 06:35:15;;;;;;;;;;;;;;;23.33;53.36;99982.72;5057265;28;1972;-42
2022/08/22 06:37:41;;;;;;;;;;;;;;;25.00;45.85;99984.03;5068321;28;1029;-42
2022/08/22 06:40:07;;;;;;;;;;;;;;;26.17;43.40;99992.09;5060106;28;1104;-42
2022/08/22 06:42:32;;;;;;;;;;;;;;;23.81;46.96;99984.47;5055235;28;962;-40
2022/08/22 06:45:07;;;;;;;;;;;;;;;22.47;49.36;99982.31;5051844;28;1064;-41
2022/08/22 06:47:37;;;;;;;;;;;;;;;21.92;52.26;99976.66;5072044;28;896;-43
2022/08/22 06:50:04;;;;;;;;;;;;;;;22.97;52.68;99981.41;5060671;28;1006;-47
2022/08/22 06:52:31;;;;;;;;;;;;;;;24.61;47.14;99988.69;5069104;28;978;-42
2022/08/22 06:54:59;;;;;;;;;;;;;;;22.58;51.27;99989.19;5073528;28;985;-41
2022/08/22 06:57:31;;;;;;;;;;;;;;;22.00;52.67;99992.72;5053039;28;1910;-43
2022/08/22 06:59:57;;;;;;;;;;;;;;;21.54;53.76;99979.78;5052912;28;1017;-43
2022/08/22 07:02:31;;;;;;;;;;;;;;;21.48;54.25;99985.78;5073381;28;1183;-41
2022/08/22 07:04:57;;;;;;;;;;;;;;;22.34;55.56;99985.53;5076555;28;1020;-42
2022/08/22 07:07:23;;;;;;;;;;;;;;;24.16;49.26;99989.38;5069290;28;1413;-42
2022/08/22 07:09:50;;;;;;;;;;;;;;;25.51;45.70;99982.34;5050096;28;1206;-42
2022/08/22 07:12:17;;;;;;;;;;;;;;;24.77;45.62;99980.44;5046232;28;1001;-41
2022/08/22 07:14:43;;;;;;;;;;;;;;;22.62;49.29;99987.03;5044120;28;1057;-42
2022/08/22 07:17:15;;;;;;;;;;;;;;;22.02;51.93;99984.56;5045767;28;1910;-40
2022/08/22 07:19:44;;;;;;;;;;;;;;;23.97;48.96;99988.88;5050813;28;942;-43
2022/08/22 07:22:14;;;;;;;;;;;;;;;23.28;49.69;99980.56;5066274;28;1044;-40
2022/08/22 07:24:42;;;;;;;;;;;;;;;22.15;52.82;99973.34;5069098;28;1036;-40
2022/08/22 07:27:14;;;;;;;;;;;;;;;21.82;53.96;99968.78;5056255;28;1021;-41
2022/08/22 07:29:39;;;;;;;;;;;;;;;21.49;54.06;99961.53;5071903;28;1068;-44
2022/08/22 07:32:12;;;;;;;;;;;;;;;21.31;53.97;99960.81;5073900;28;1142;-41
2022/08/22 07:34:38;;;;;;;;;;;;;;;23.19;49.94;99963.69;5055149;28;1100;-44
2022/08/22 07:37:05;;;;;;;;;;;;;;;24.54;46.07;99961.69;5075767;28;1894;-39
2022/08/22 07:39:51;;;;;;;;;;;;;;;22.29;48.71;99961.09;5059319;28;1107;-41
2022/08/22 07:42:36;;;;;;;;;;;;;;;23.29;49.03;99954.59;5042400;28;981;-44
2022/08/22 07:45:01;;;;;;;;;;;;;;;23.59;47.83;99969.00;5038638;28;1249;-46
2022/08/22 07:47:34;;;;;;;;;;;;;;;22.05;51.52;99961.94;5061158;28;1259;-42
2022/08/22 07:50:02;;;;;;;;;;;;;;;21.36;52.75;99954.00;5055267;28;1224;-43
2022/08/22 07:52:29;;;;;;;;;;;;;;;22.81;51.74;99953.63;5055711;28;1041;-45
2022/08/22 07:55:04;;;;;;;;;;;;;;;23.91;45.87;99960.03;5043590;28;1232;-44
2022/08/22 07:57:34;;;;;;;;;;;;;;;22.26;49.35;99958.75;5056503;28;954;-46
2022/08/22 07:59:59;;;;;;;;;;;;;;;23.99;45.16;99954.59;5046801;28;1176;-42
2022/08/22 08:02:25;;;;;;;;;;;;;;;23.57;46.60;99938.00;5049311;28;1048;-43
2022/08/22 08:04:53;;;;;;;;;;;;;;;22.20;50.10;99946.88;5068048;28;992;-48
2022/08/22 08:07:19;;;;;;;;;;;;;;;21.66;51.39;99945.50;5051713;28;1033;-46
2022/08/22 08:09:49;;;;;;;;;;;;;;;21.51;51.95;99938.13;5053594;28;1098;-49
2022/08/22 08:12:14;;;;;;;;;;;;;;;21.33;52.74;99948.97;5053374;28;942;-40
2022/08/22 08:14:39;;;;;;;;;;;;;;;23.15;50.39;99950.78;5055692;28;978;-44
2022/08/22 08:17:19;;;;;;;;;;;;;;;23.76;47.77;99949.25;5052518;28;1914;-41
2022/08/22 08:19:46;;;;;;;;;;;;;;;22.19;49.30;99947.88;5053096;28;1127;-40
2022/08/22 08:22:14;;;;;;;;;;;;;;;22.26;54.16;99940.84;5053678;28;1048;-39
2022/08/22 08:24:39;;;;;;;;;;;;;;;24.47;46.76;99942.78;5072344;28;1107;-46
2022/08/22 08:30:00;;;;;;;;;;;;;;;21.93;52.64;99948.06;5059703;28;981;-44
2022/08/22 08:32:29;;;;;;;;;;;;;;;21.66;53.34;99950.84;5050122;28;1171;-38
2022/08/22 08:34:54;;;;;;;;;;;;;;;21.51;54.55;99943.50;5051496;28;933;-40
2022/08/22 08:37:23;;;;;;;;;;;;;;;21.94;57.75;99947.06;5051916;28;1898;-38
2022/08/22 08:39:49;;;;;;;;;;;;;;;24.00;50.07;99945.53;5060662;28;961;-39
2022/08/22 08:45:54;;;;;;;;;;;;;;;21.69;53.01;99947.84;5015564;28;988;-38
2022/08/22 08:48:23;;;;;;;;;;;;;;;21.32;55.03;99939.25;5041844;28;950;-40
2022/08/22 08:50:49;;;;;;;;;;;;;;;21.30;53.38;99941.28;5054554;28;1053;-40
2022/08/22 08:53:20;;;;;;;;;;;;;;;22.82;51.55;99938.38;5070790;28;1132;-38
2022/08/22 08:56:04;;;;;;;;;;;;;;;23.93;47.05;99941.91;5069824;28;2876;-36
2022/08/22 08:58:49;;;;;;;;;;;;;;;22.01;51.74;99945.38;5073172;28;1040;-37
2022/08/22 09:01:17;;;;;;;;;;;;;;;21.53;52.95;99941.50;5064537;28;1782;-36
2022/08/22 09:03:57;;;;;;;;;;;;;;;21.22;54.00;99941.25;5063974;28;2173;-38
2022/08/22 09:06:32;;;;;;;;;;;;;;;21.98;55.86;99946.56;5065111;28;1723;-38
2022/08/22 09:08:57;;;;;;;;;;;;;;;24.12;48.57;99947.78;5067329;28;1964;-36
2022/08/22 09:11:43;;;;;;;;;;;;;;;22.27;52.45;99944.38;5065931;28;1983;-37
2022/08/22 09:14:21;;;;;;;;;;;;;;;21.75;54.22;99943.69;5064811;28;981;-38
2022/08/22 09:17:07;;;;;;;;;;;;;;;21.62;55.20;99934.28;5052689;28;1910;-36
2022/08/22 09:19:58;;;;;;;;;;;;;;;21.79;56.26;99933.50;5022206;28;1067;-40
2022/08/22 09:22:50;;;;;;;;;;;;;;;23.29;55.20;99939.31;5057358;28;1610;-45
2022/08/22 09:25:27;;;;;;;;;;;;;;;23.48;52.29;99946.09;5020523;28;1176;-40
2022/08/22 09:27:55;;;;;;;;;;;;;;;22.30;54.28;99944.03;5067984;28;993;-45
2022/08/22 09:30:22;;;;;;;;;;;;;;;22.93;61.71;99940.66;5066891;28;1004;-46
2022/08/22 09:32:47;;;;;;;;;;;;;;;23.64;56.98;99930.88;5069074;28;1091;-44
2022/08/22 09:35:25;;;;;;;;;;;;;;;23.99;55.36;99938.47;5068979;28;1953;-45
2022/08/22 09:37:53;;;;;;;;;;;;;;;24.30;54.33;99928.66;5071537;28;1056;-44
2022/08/22 09:40:24;;;;;;;;;;;;;;;24.25;53.88;99937.28;5068118;28;2412;-47
2022/08/22 09:43:02;;;;;;;;;;;;;;;24.38;54.17;99931.25;5038662;28;1171;-45
2022/08/22 09:45:35;;;;;;;;;;;;;;;24.75;51.32;99927.81;5065944;28;977;-44
2022/08/22 09:48:20;;;;;;;;;;;;;;;24.50;52.01;99925.41;5049349;28;1464;-45
2022/08/22 09:50:54;;;;;;;;;;;;;;;24.50;50.03;99920.88;5072806;28;1008;-43
2022/08/22 09:53:39;;;;;;;;;;;;;;;23.33;48.55;99908.44;5049662;28;1009;-44
2022/08/22 09:56:09;;;;;;;;;;;;;;;22.60;50.68;99911.28;5058465;28;1897;-48
2022/08/22 09:58:53;;;;;;;;;;;;;;;22.24;51.83;99920.56;5054689;28;1283;-43
2022/08/22 10:01:23;;;;;;;;;;;;;;;22.29;53.48;99912.84;5058577;28;1183;-45
2022/08/22 10:04:07;;;;;;;;;;;;;;;22.17;54.10;99909.69;5053596;28;1219;-43
2022/08/22 10:06:40;;;;;;;;;;;;;;;22.22;54.28;99911.88;5057672;28;1107;-44
2022/08/22 10:09:07;;;;;;;;;;;;;;;22.04;55.58;99910.22;5053407;28;1263;-48
2022/08/22 10:11:33;;;;;;;;;;;;;;;22.09;55.69;99913.22;5052552;28;2535;-52
2022/08/22 10:14:28;;;;;;;;;;;;;;;22.12;55.28;99912.88;5059318;28;1101;-48
2022/08/22 10:17:12;;;;;;;;;;;;;;;22.20;55.29;99913.91;5004633;28;1891;-44
2022/08/22 10:19:37;;;;;;;;;;;;;;;22.31;54.82;99902.81;5067993;28;1005;-47
2022/08/22 10:22:17;;;;;;;;;;;;;;;22.27;54.68;99909.53;5059120;28;1028;-54
2022/08/22 10:25:01;;;;;;;;;;;;;;;22.26;54.58;99911.38;5047282;28;1236;-50
2022/08/22 10:27:26;;;;;;;;;;;;;;;22.23;53.61;99909.03;5059453;28;1208;-48
2022/08/22 10:30:07;;;;;;;;;;;;;;;22.02;53.37;99915.75;5063102;28;1298;-41
2022/08/22 10:32:39;;;;;;;;;;;;;;;21.88;53.97;99911.94;5069525;28;1012;-47
2022/08/22 10:35:28;;;;;;;;;;;;;;;23.10;54.49;99913.78;5055293;28;982;-44
2022/08/22 10:38:10;;;;;;;;;;;;;;;24.29;48.36;99917.06;5053060;28;1357;-45
2022/08/22 10:40:47;;;;;;;;;;;;;;;22.70;50.55;99911.09;5040946;28;2509;-41
2022/08/22 10:43:30;;;;;;;;;;;;;;;22.35;52.11;99911.34;5060417;28;1227;-50
2022/08/22 10:46:02;;;;;;;;;;;;;;;22.26;51.85;99915.88;5055757;28;1037;-44
2022/08/22 10:48:33;;;;;;;;;;;;;;;22.27;52.60;99917.56;5067797;28;890;-41
2022/08/22 10:51:09;;;;;;;;;;;;;;;22.31;52.68;99915.38;5048741;28;1133;-41
2022/08/22 10:53:50;;;;;;;;;;;;;;;22.25;51.71;99908.88;5071148;28;937;-43
2022/08/22 10:56:25;;;;;;;;;;;;;;;21.84;50.54;99905.22;5049990;28;1906;-44
2022/08/22 10:59:09;;;;;;;;;;;;;;;21.85;51.23;99912.25;5049837;28;990;-42
2022/08/22 11:01:37;;;;;;;;;;;;;;;21.92;51.55;99904.38;5069417;28;1171;-46
2022/08/22 11:04:10;;;;;;;;;;;;;;;22.04;51.93;99904.88;5047858;28;1346;-44
2022/08/22 11:06:56;;;;;;;;;;;;;;;24.03;48.95;99907.56;5066282;28;1024;-42
2022/08/22 11:09:28;;;;;;;;;;;;;;;23.46;48.93;99898.97;5067881;28;1945;-45
2022/08/22 11:11:57;;;;;;;;;;;;;;;22.64;49.80;99901.91;5059787;28;1428;-42
2022/08/22 11:14:34;;;;;;;;;;;;;;;22.39;51.01;99892.06;5070735;28;977;-45
2022/08/22 11:17:18;;;;;;;;;;;;;;;22.25;51.86;99895.47;5071895;28;1898;-44
2022/08/22 11:20:06;;;;;;;;;;;;;;;22.17;52.54;99907.00;5070992;28;1196;-42
2022/08/22 11:22:37;;;;;;;;;;;;;;;22.28;52.76;99897.81;5058712;28;1498;-44
2022/08/22 11:25:21;;;;;;;;;;;;;;;23.27;53.14;99894.88;5054066;28;925;-44
2022/08/22 11:28:09;;;;;;;;;;;;;;;24.58;48.89;99898.44;5075836;28;996;-45
2022/08/22 11:30:41;;;;;;;;;;;;;;;22.90;50.50;99903.47;5063770;28;1127;-43
2022/08/22 11:33:18;;;;;;;;;;;;;;;22.49;51.56;99897.22;5068685;28;938;-42
2022/08/22 11:36:03;;;;;;;;;;;;;;;21.99;53.02;99900.03;5068199;28;1961;-40
2022/08/22 11:38:38;;;;;;;;;;;;;;;21.87;53.49;99901.38;5064086;28;1156;-45
2022/08/22 11:41:27;;;;;;;;;;;;;;;22.03;53.39;99900.53;5052464;28;1977;-41
2022/08/22 11:44:07;;;;;;;;;;;;;;;22.09;53.61;99894.47;5063937;28;1036;-45
2022/08/22 11:46:40;;;;;;;;;;;;;;;22.58;56.19;99889.16;5056725;28;989;-47
2022/08/22 11:49:05;;;;;;;;;;;;;;;24.85;48.35;99897.94;5069591;28;1165;-47
2022/08/22 11:51:33;;;;;;;;;;;;;;;23.39;50.38;99893.44;5064789;28;957;-57
2022/08/22 11:54:03;;;;;;;;;;;;;;;22.69;51.25;99888.81;5069874;28;976;-42
2022/08/22 11:56:33;;;;;;;;;;;;;;;22.34;52.59;99881.03;5048288;28;1918;-45
2022/08/22 11:59:19;;;;;;;;;;;;;;;22.26;52.98;99881.91;5055650;28;1021;-50
2022/08/22 12:01:53;;;;;;;;;;;;;;;22.02;53.19;99888.97;5068267;28;1532;-42
2022/08/22 12:04:51;;;;;;;;;;;;;;;22.00;50.68;99892.84;5054732;28;1028;-40
2022/08/22 12:07:16;;;;;;;;;;;;;;;22.09;49.95;99896.31;5023609;28;1391;-41
2022/08/22 12:09:49;;;;;;;;;;;;;;;24.36;43.50;99892.97;5069908;28;1915;-48
2022/08/22 12:12:26;;;;;;;;;;;;;;;23.97;44.95;99886.81;5061370;28;1064;-44
2022/08/22 12:14:52;;;;;;;;;;;;;;;22.73;46.82;99889.31;5075181;28;1100;-42
2022/08/22 12:17:23;;;;;;;;;;;;;;;22.19;49.19;99890.81;5069253;28;1972;-47
2022/08/22 12:19:49;;;;;;;;;;;;;;;22.01;50.77;99883.78;5060984;28;1035;-44
2022/08/22 12:22:33;;;;;;;;;;;;;;;22.06;50.75;99878.75;5058327;28;1188;-46
2022/08/22 12:25:04;;;;;;;;;;;;;;;22.01;51.18;99873.06;5060459;28;1235;-46
2022/08/22 12:27:36;;;;;;;;;;;;;;;22.05;52.26;99877.09;5059937;28;1038;-47
2022/08/22 12:30:04;;;;;;;;;;;;;;;23.89;49.42;99870.78;5054709;28;1061;-42
2022/08/22 12:32:48;;;;;;;;;;;;;;;24.06;47.58;99879.47;5060638;28;973;-44
2022/08/22 12:35:16;;;;;;;;;;;;;;;22.89;49.32;99866.94;5056646;28;1890;-48
2022/08/22 12:38:00;;;;;;;;;;;;;;;22.45;51.14;99879.00;5059123;28;1281;-45
2022/08/22 12:40:28;;;;;;;;;;;;;;;22.40;51.64;99876.84;5069450;28;1846;-44
2022/08/22 12:43:00;;;;;;;;;;;;;;;22.30;51.95;99874.34;5072324;28;1044;-41
2022/08/22 12:45:29;;;;;;;;;;;;;;;22.30;52.46;99881.56;5075044;28;968;-43
2022/08/22 12:47:58;;;;;;;;;;;;;;;22.65;54.98;99875.94;5070952;28;993;-45
2022/08/22 12:50:27;;;;;;;;;;;;;;;25.06;47.05;99868.41;5061561;28;989;-42
2022/08/22 12:53:11;;;;;;;;;;;;;;;23.59;48.65;99875.03;5054435;28;1213;-41
2022/08/22 12:55:39;;;;;;;;;;;;;;;22.08;51.37;99800.91;5064643;28;1894;-41
2022/08/22 12:58:25;;;;;;;;;;;;;;;22.25;52.16;99869.50;5063601;28;1144;-43
2022/08/22 13:00:51;;;;;;;;;;;;;;;21.93;52.73;99865.91;5060680;28;1380;-43
2022/08/22 13:03:16;;;;;;;;;;;;;;;22.07;52.42;99860.84;5053106;28;974;-50
2022/08/22 13:05:42;;;;;;;;;;;;;;;22.05;53.11;99853.00;5073367;28;1032;-47
2022/08/22 13:08:08;;;;;;;;;;;;;;;22.39;56.44;99853.72;5068003;28;981;-47
2022/08/22 13:10:34;;;;;;;;;;;;;;;24.96;47.17;99861.69;5046700;28;1969;-44
2022/08/22 13:12:59;;;;;;;;;;;;;;;23.30;49.11;99860.50;5044726;28;1036;-42
2022/08/22 13:15:24;;;;;;;;;;;;;;;22.29;50.37;99858.47;5050074;28;1906;-42
2022/08/22 13:17:49;;;;;;;;;;;;;;;22.01;51.11;99855.16;5047148;28;1242;-44
2022/08/22 13:20:25;;;;;;;;;;;;;;;21.81;52.38;99857.38;5050384;28;1072;-44
2022/08/22 13:22:50;;;;;;;;;;;;;;;21.91;52.32;99859.88;5047821;28;1108;-43
2022/08/22 13:25:23;;;;;;;;;;;;;;;21.88;52.40;99858.38;5045933;28;1033;-44
2022/08/22 13:27:49;;;;;;;;;;;;;;;21.69;53.28;99862.19;5045958;28;973;-45
2022/08/22 13:30:17;;;;;;;;;;;;;;;22.70;53.96;99861.00;5044930;28;1211;-39
2022/08/22 13:32:44;;;;;;;;;;;;;;;24.99;43.66;99856.75;5050395;28;1183;-45
2022/08/22 13:35:09;;;;;;;;;;;;;;;22.84;48.23;99853.22;5045418;28;1194;-47
2022/08/22 13:37:39;;;;;;;;;;;;;;;22.00;49.02;99850.81;5046041;28;1901;-41